createdAt,value
2018-01-17T00:00:52.849Z,0.00
2018-01-17T00:01:52.856Z,0.00
2018-01-17T00:02:52.870Z,0.00
2018-01-17T00:03:52.883Z,0.00
2018-01-17T00:04:52.895Z,0.00
2018-01-17T00:05:52.905Z,0.00
2018-01-17T00:06:52.929Z,0.00
2018-01-17T00:07:52.930Z,0.00
2018-01-17T00:08:52.943Z,0.00
2018-01-17T00:09:52.959Z,0.00
2018-01-17T00:10:52.981Z,0.00
2018-01-17T00:11:52.984Z,0.00
2018-01-17T00:12:52.999Z,0.00
2018-01-17T00:13:53.010Z,0.00
2018-01-17T00:14:53.019Z,0.00
2018-01-17T00:15:53.039Z,0.00
2018-01-17T00:16:53.048Z,0.00
2018-01-17T00:17:53.059Z,0.00
2018-01-17T00:18:53.072Z,0.00
2018-01-17T00:19:53.086Z,0.00
2018-01-17T00:20:53.099Z,0.00
2018-01-17T00:21:53.109Z,0.00
2018-01-17T00:22:53.127Z,0.00
2018-01-17T00:23:53.136Z,0.00
2018-01-17T00:24:53.149Z,0.00
2018-01-17T00:25:53.164Z,0.00
2018-01-17T00:26:53.177Z,0.00
2018-01-17T00:27:53.194Z,0.00
2018-01-17T00:28:53.199Z,0.00
2018-01-17T00:29:53.212Z,0.00
2018-01-17T00:30:53.224Z,0.00
2018-01-17T00:31:53.243Z,0.00
2018-01-17T00:32:53.249Z,0.00
2018-01-17T00:33:53.263Z,0.00
2018-01-17T00:34:53.279Z,0.00
2018-01-17T00:35:53.288Z,0.00
2018-01-17T00:36:53.300Z,0.00
2018-01-17T00:37:53.313Z,0.00
2018-01-17T00:38:53.327Z,0.00
2018-01-17T00:39:53.342Z,0.00
2018-01-17T00:40:53.356Z,0.00
2018-01-17T00:41:53.373Z,0.00
2018-01-17T00:42:53.386Z,0.00
2018-01-17T00:43:53.388Z,0.00
2018-01-17T00:44:53.401Z,0.00
2018-01-17T00:45:53.415Z,0.00
2018-01-17T00:46:53.434Z,0.00
2018-01-17T00:47:53.439Z,0.00
2018-01-17T00:48:53.455Z,0.00
2018-01-17T00:49:53.467Z,0.00
2018-01-17T00:50:53.483Z,0.00
2018-01-17T00:51:53.495Z,0.00
2018-01-17T00:52:53.502Z,0.00
2018-01-17T00:53:53.515Z,0.00
2018-01-17T00:54:53.530Z,0.00
2018-01-17T00:55:53.540Z,0.00
2018-01-17T00:56:53.552Z,0.00
2018-01-17T00:57:53.570Z,0.00
2018-01-17T00:58:53.579Z,0.00
2018-01-17T00:59:53.599Z,0.00
2018-01-17T01:00:53.602Z,0.00
2018-01-17T01:01:53.618Z,0.00
2018-01-17T01:02:53.626Z,0.00
2018-01-17T01:03:53.645Z,0.00
2018-01-17T01:04:53.663Z,0.00
2018-01-17T01:05:53.664Z,0.00
2018-01-17T01:06:53.681Z,0.00
2018-01-17T01:07:53.696Z,0.00
2018-01-17T01:08:53.709Z,0.00
2018-01-17T01:09:53.724Z,0.00
2018-01-17T01:10:53.735Z,0.00
2018-01-17T01:11:53.746Z,0.00
2018-01-17T01:12:53.756Z,0.00
2018-01-17T01:13:53.769Z,0.00
2018-01-17T01:14:53.784Z,0.00
2018-01-17T01:15:53.794Z,0.00
2018-01-17T01:16:53.809Z,0.00
2018-01-17T01:17:53.825Z,0.00
2018-01-17T01:18:53.836Z,0.00
2018-01-17T01:19:53.847Z,0.00
2018-01-17T01:20:53.866Z,0.00
2018-01-17T01:21:53.875Z,0.00
2018-01-17T01:22:53.883Z,0.00
2018-01-17T01:23:53.896Z,0.00
2018-01-17T01:24:53.913Z,0.00
2018-01-17T01:25:53.932Z,0.00
2018-01-17T01:26:53.946Z,0.00
2018-01-17T01:27:53.950Z,0.00
2018-01-17T01:28:53.962Z,0.00
2018-01-17T01:29:53.975Z,0.00
2018-01-17T01:30:53.990Z,0.00
2018-01-17T01:31:54.003Z,0.00
2018-01-17T01:32:54.029Z,0.00
2018-01-17T01:33:54.027Z,0.00
2018-01-17T01:34:54.042Z,0.00
2018-01-17T01:35:54.057Z,0.00
2018-01-17T01:36:54.075Z,0.00
2018-01-17T01:37:54.085Z,0.00
2018-01-17T01:38:54.097Z,0.00
2018-01-17T01:39:54.108Z,0.00
2018-01-17T01:40:54.120Z,0.00
2018-01-17T01:41:54.133Z,0.00
2018-01-17T01:42:54.145Z,0.00
2018-01-17T01:43:54.156Z,0.00
2018-01-17T01:44:54.172Z,0.00
2018-01-17T01:45:54.184Z,0.00
2018-01-17T01:46:54.196Z,0.00
2018-01-17T01:47:54.209Z,0.00
2018-01-17T01:48:54.221Z,0.00
2018-01-17T01:49:54.233Z,0.00
2018-01-17T01:50:54.247Z,0.00
2018-01-17T01:51:54.263Z,0.00
2018-01-17T01:52:54.277Z,0.00
2018-01-17T01:53:54.286Z,0.00
2018-01-17T01:54:54.299Z,0.00
2018-01-17T01:55:54.314Z,0.00
2018-01-17T01:56:54.330Z,0.00
2018-01-17T01:57:54.338Z,0.00
2018-01-17T01:58:54.351Z,0.00
2018-01-17T01:59:54.368Z,0.00
2018-01-17T02:00:54.381Z,0.00
2018-01-17T02:01:54.389Z,0.00
2018-01-17T02:02:54.401Z,0.00
2018-01-17T02:03:54.415Z,0.00
2018-01-17T02:04:54.432Z,0.00
2018-01-17T02:05:54.448Z,0.00
2018-01-17T02:06:54.451Z,0.00
2018-01-17T02:07:54.469Z,0.00
2018-01-17T02:08:54.478Z,0.00
2018-01-17T02:09:54.490Z,0.00
2018-01-17T02:10:54.507Z,0.00
2018-01-17T02:11:54.519Z,0.00
2018-01-17T02:12:54.530Z,0.00
2018-01-17T02:13:54.545Z,0.00
2018-01-17T02:14:54.561Z,0.00
2018-01-17T02:15:54.570Z,0.00
2018-01-17T02:16:54.581Z,0.00
2018-01-17T02:17:54.594Z,0.00
2018-01-17T02:18:54.620Z,0.00
2018-01-17T02:19:54.625Z,0.00
2018-01-17T02:20:54.632Z,0.00
2018-01-17T02:21:54.646Z,0.00
2018-01-17T02:22:54.657Z,0.00
2018-01-17T02:23:54.668Z,0.00
2018-01-17T02:24:54.697Z,0.00
2018-01-17T02:25:54.710Z,0.00
2018-01-17T02:26:54.706Z,0.00
2018-01-17T02:27:54.722Z,0.00
2018-01-17T02:28:54.730Z,0.00
2018-01-17T02:29:54.745Z,0.00
2018-01-17T02:30:54.759Z,0.00
2018-01-17T02:31:54.779Z,0.00
2018-01-17T02:32:54.786Z,0.00
2018-01-17T02:33:54.797Z,0.00
2018-01-17T02:34:54.810Z,0.00
2018-01-17T02:35:54.824Z,0.00
2018-01-17T02:36:54.834Z,0.00
2018-01-17T02:37:54.844Z,0.00
2018-01-17T02:38:54.861Z,0.00
2018-01-17T02:39:54.872Z,0.00
2018-01-17T02:40:54.885Z,0.00
2018-01-17T02:41:54.898Z,0.00
2018-01-17T02:42:54.908Z,0.00
2018-01-17T02:43:54.923Z,0.00
2018-01-17T02:44:54.932Z,0.00
2018-01-17T02:45:54.947Z,0.00
2018-01-17T02:46:54.960Z,0.00
2018-01-17T02:47:54.975Z,0.00
2018-01-17T02:48:54.984Z,0.00
2018-01-17T02:49:54.998Z,0.00
2018-01-17T02:50:55.006Z,0.00
2018-01-17T02:51:55.158Z,0.00
2018-01-17T02:52:55.037Z,0.00
2018-01-17T02:53:55.048Z,0.00
2018-01-17T02:54:55.064Z,0.00
2018-01-17T02:55:55.071Z,0.00
2018-01-17T02:56:55.083Z,0.00
2018-01-17T02:57:55.096Z,0.00
2018-01-17T02:58:55.109Z,0.00
2018-01-17T02:59:55.122Z,0.00
2018-01-17T03:00:55.135Z,0.00
2018-01-17T03:01:55.151Z,0.00
2018-01-17T03:02:55.159Z,0.00
2018-01-17T03:03:55.170Z,0.00
2018-01-17T03:04:55.184Z,0.00
2018-01-17T03:05:55.195Z,0.00
2018-01-17T03:06:55.210Z,0.00
2018-01-17T03:07:55.220Z,0.00
2018-01-17T03:08:55.236Z,0.00
2018-01-17T03:09:55.249Z,0.00
2018-01-17T03:10:55.259Z,0.00
2018-01-17T03:11:55.274Z,0.00
2018-01-17T03:12:55.291Z,0.00
2018-01-17T03:13:55.300Z,0.00
2018-01-17T03:14:55.315Z,0.00
2018-01-17T03:15:55.325Z,0.00
2018-01-17T03:16:55.341Z,0.00
2018-01-17T03:17:55.349Z,0.00
2018-01-17T03:18:55.366Z,0.00
2018-01-17T03:19:55.370Z,0.00
2018-01-17T03:20:55.393Z,0.00
2018-01-17T03:21:55.399Z,0.00
2018-01-17T03:22:55.409Z,0.00
2018-01-17T03:23:55.430Z,0.00
2018-01-17T03:24:55.450Z,0.00
2018-01-17T03:25:55.448Z,0.00
2018-01-17T03:26:55.462Z,0.00
2018-01-17T03:27:55.475Z,0.00
2018-01-17T03:28:55.485Z,0.00
2018-01-17T03:29:55.498Z,0.00
2018-01-17T03:30:55.512Z,0.00
2018-01-17T03:31:55.526Z,0.00
2018-01-17T03:32:55.535Z,0.00
2018-01-17T03:33:55.549Z,0.00
2018-01-17T03:34:55.560Z,0.00
2018-01-17T03:35:55.573Z,0.00
2018-01-17T03:36:55.586Z,0.00
2018-01-17T03:37:55.605Z,0.00
2018-01-17T03:38:55.612Z,0.00
2018-01-17T03:39:55.623Z,0.00
2018-01-17T03:40:55.640Z,0.00
2018-01-17T03:41:55.650Z,0.00
2018-01-17T03:42:55.665Z,0.00
2018-01-17T03:43:55.674Z,0.00
2018-01-17T03:44:55.686Z,0.00
2018-01-17T03:45:55.698Z,0.00
2018-01-17T03:46:55.731Z,0.00
2018-01-17T03:47:55.723Z,0.00
2018-01-17T03:48:55.740Z,0.00
2018-01-17T03:49:55.748Z,0.00
2018-01-17T03:50:55.763Z,0.00
2018-01-17T03:51:55.777Z,0.00
2018-01-17T03:52:55.786Z,0.00
2018-01-17T03:53:55.800Z,0.00
2018-01-17T03:54:55.813Z,0.00
2018-01-17T03:55:55.868Z,0.00
2018-01-17T03:56:55.837Z,0.00
2018-01-17T03:57:55.848Z,0.00
2018-01-17T03:58:55.873Z,0.00
2018-01-17T03:59:55.875Z,0.00
2018-01-17T04:00:55.890Z,0.00
2018-01-17T04:01:55.900Z,0.00
2018-01-17T04:02:55.916Z,0.00
2018-01-17T04:03:55.928Z,0.00
2018-01-17T04:04:55.940Z,0.00
2018-01-17T04:05:55.953Z,0.00
2018-01-17T04:06:55.964Z,0.00
2018-01-17T04:07:55.975Z,0.00
2018-01-17T04:08:56.001Z,0.00
2018-01-17T04:09:56.003Z,0.00
2018-01-17T04:10:56.064Z,0.00
2018-01-17T04:11:56.026Z,0.00
2018-01-17T04:12:56.037Z,0.00
2018-01-17T04:13:56.048Z,0.00
2018-01-17T04:14:56.062Z,0.00
2018-01-17T04:15:56.076Z,0.00
2018-01-17T04:16:56.086Z,0.00
2018-01-17T04:17:56.103Z,0.00
2018-01-17T04:18:56.110Z,0.00
2018-01-17T04:19:56.129Z,0.00
2018-01-17T04:20:56.137Z,0.00
2018-01-17T04:21:56.147Z,0.00
2018-01-17T04:22:56.167Z,0.00
2018-01-17T04:23:56.179Z,0.00
2018-01-17T04:24:56.195Z,0.00
2018-01-17T04:25:56.195Z,0.00
2018-01-17T04:26:56.207Z,0.00
2018-01-17T04:27:56.220Z,0.00
2018-01-17T04:28:56.232Z,0.00
2018-01-17T04:29:56.249Z,0.00
2018-01-17T04:30:56.258Z,0.00
2018-01-17T04:31:56.268Z,0.00
2018-01-17T04:32:56.281Z,0.00
2018-01-17T04:33:56.295Z,0.00
2018-01-17T04:34:56.304Z,0.00
2018-01-17T04:35:56.320Z,0.00
2018-01-17T04:36:56.334Z,0.00
2018-01-17T04:37:56.347Z,0.00
2018-01-17T04:38:56.356Z,0.00
2018-01-17T04:39:56.367Z,0.00
2018-01-17T04:40:56.380Z,0.00
2018-01-17T04:41:56.396Z,0.00
2018-01-17T04:42:56.405Z,0.00
2018-01-17T04:43:56.416Z,0.00
2018-01-17T04:44:56.428Z,0.00
2018-01-17T04:45:56.441Z,0.00
2018-01-17T04:46:56.454Z,0.00
2018-01-17T04:47:56.464Z,0.00
2018-01-17T04:48:56.477Z,0.00
2018-01-17T04:49:56.489Z,0.00
2018-01-17T04:50:56.503Z,0.00
2018-01-17T04:51:56.516Z,0.00
2018-01-17T04:52:56.531Z,0.00
2018-01-17T04:53:56.537Z,0.00
2018-01-17T04:54:56.551Z,0.00
2018-01-17T04:55:56.568Z,0.00
2018-01-17T04:56:56.584Z,0.00
2018-01-17T04:57:56.589Z,0.00
2018-01-17T04:58:56.602Z,0.00
2018-01-17T04:59:56.614Z,0.00
2018-01-17T05:00:56.626Z,0.00
2018-01-17T05:01:56.642Z,0.00
2018-01-17T05:02:56.661Z,0.00
2018-01-17T05:03:56.661Z,0.00
2018-01-17T05:04:56.679Z,0.00
2018-01-17T05:05:56.689Z,0.00
2018-01-17T05:06:56.706Z,0.00
2018-01-17T05:07:56.714Z,0.00
2018-01-17T05:08:56.727Z,0.00
2018-01-17T05:09:56.757Z,0.00
2018-01-17T05:10:56.751Z,0.00
2018-01-17T05:11:56.764Z,0.00
2018-01-17T05:12:56.775Z,0.00
2018-01-17T05:13:56.787Z,0.00
2018-01-17T05:14:56.799Z,0.00
2018-01-17T05:15:56.811Z,0.00
2018-01-17T05:16:56.823Z,0.00
2018-01-17T05:17:56.835Z,0.00
2018-01-17T05:18:56.849Z,0.00
2018-01-17T05:19:56.859Z,0.00
2018-01-17T05:20:56.872Z,0.00
2018-01-17T05:21:56.885Z,0.00
2018-01-17T05:22:56.896Z,0.00
2018-01-17T05:23:56.909Z,0.00
2018-01-17T05:24:56.920Z,0.00
2018-01-17T05:25:56.932Z,0.00
2018-01-17T05:26:56.951Z,0.00
2018-01-17T05:27:56.958Z,0.00
2018-01-17T05:28:56.974Z,0.00
2018-01-17T05:29:56.984Z,0.00
2018-01-17T05:30:57.028Z,0.00
2018-01-17T05:31:57.010Z,0.00
2018-01-17T05:32:57.020Z,0.00
2018-01-17T05:33:57.033Z,0.00
2018-01-17T05:34:57.050Z,0.00
2018-01-17T05:35:57.057Z,0.00
2018-01-17T05:36:57.068Z,0.00
2018-01-17T05:37:57.080Z,0.00
2018-01-17T05:38:57.093Z,0.00
2018-01-17T05:39:57.105Z,0.00
2018-01-17T05:40:57.117Z,0.00
2018-01-17T05:41:57.128Z,0.00
2018-01-17T05:42:57.143Z,0.00
2018-01-17T05:43:57.164Z,0.00
2018-01-17T05:44:57.173Z,0.00
2018-01-17T05:45:57.182Z,0.00
2018-01-17T05:46:57.205Z,4.00
2018-01-17T05:47:57.205Z,0.00
2018-01-17T05:48:57.212Z,0.00
2018-01-17T05:49:57.259Z,0.00
2018-01-17T05:50:57.239Z,0.00
2018-01-17T05:51:57.253Z,0.00
2018-01-17T05:52:57.264Z,0.00
2018-01-17T05:53:57.274Z,0.00
2018-01-17T05:54:57.291Z,4.00
2018-01-17T05:55:57.302Z,0.00
2018-01-17T05:56:57.314Z,0.00
2018-01-17T05:57:57.323Z,0.00
2018-01-17T05:58:57.336Z,0.00
2018-01-17T05:59:57.349Z,0.00
2018-01-17T06:00:57.361Z,0.00
2018-01-17T06:01:57.381Z,0.00
2018-01-17T06:02:57.385Z,0.00
2018-01-17T06:03:57.398Z,0.00
2018-01-17T06:04:57.411Z,0.00
2018-01-17T06:05:57.425Z,0.00
2018-01-17T06:06:57.443Z,0.00
2018-01-17T06:07:57.446Z,0.00
2018-01-17T06:08:57.459Z,0.00
2018-01-17T06:09:57.470Z,0.00
2018-01-17T06:10:57.483Z,0.00
2018-01-17T06:11:57.494Z,0.00
2018-01-17T06:12:57.507Z,0.00
2018-01-17T06:13:57.524Z,0.00
2018-01-17T06:14:57.532Z,0.00
2018-01-17T06:15:57.544Z,0.00
2018-01-17T06:16:57.555Z,0.00
2018-01-17T06:17:57.573Z,0.00
2018-01-17T06:18:57.582Z,0.00
2018-01-17T06:19:57.593Z,0.00
2018-01-17T06:20:57.609Z,0.00
2018-01-17T06:21:57.614Z,0.00
2018-01-17T06:22:57.631Z,0.00
2018-01-17T06:23:57.640Z,0.00
2018-01-17T06:24:57.656Z,0.00
2018-01-17T06:25:57.665Z,0.00
2018-01-17T06:26:57.678Z,0.00
2018-01-17T06:27:57.688Z,0.00
2018-01-17T06:28:57.704Z,0.00
2018-01-17T06:29:57.716Z,0.00
2018-01-17T06:30:57.726Z,0.00
2018-01-17T06:31:57.740Z,0.00
2018-01-17T06:32:57.750Z,0.00
2018-01-17T06:33:57.764Z,0.00
2018-01-17T06:34:57.777Z,4.00
2018-01-17T06:35:57.791Z,0.00
2018-01-17T06:36:57.806Z,0.00
2018-01-17T06:37:57.835Z,0.00
2018-01-17T06:38:57.828Z,4.00
2018-01-17T06:39:57.843Z,4.00
2018-01-17T06:40:57.849Z,4.00
2018-01-17T06:41:57.862Z,4.00
2018-01-17T06:42:57.872Z,4.00
2018-01-17T06:43:57.886Z,0.00
2018-01-17T06:44:57.904Z,0.00
2018-01-17T06:45:57.915Z,0.00
2018-01-17T06:46:57.924Z,4.00
2018-01-17T06:47:57.933Z,4.00
2018-01-17T06:48:57.964Z,8.00
2018-01-17T06:49:57.959Z,8.00
2018-01-17T06:50:57.995Z,8.00
2018-01-17T06:51:57.984Z,12.00
2018-01-17T06:52:57.996Z,12.00
2018-01-17T06:53:58.009Z,12.00
2018-01-17T06:54:58.027Z,12.00
2018-01-17T06:55:58.036Z,20.00
2018-01-17T06:56:58.044Z,20.00
2018-01-17T06:57:58.061Z,24.00
2018-01-17T06:58:58.070Z,24.00
2018-01-17T06:59:58.082Z,32.00
2018-01-17T07:00:58.093Z,28.00
2018-01-17T07:01:58.108Z,24.00
2018-01-17T07:02:58.119Z,24.00
2018-01-17T07:03:58.126Z,28.00
2018-01-17T07:04:58.141Z,32.00
2018-01-17T07:05:58.150Z,36.00
2018-01-17T07:06:58.166Z,44.00
2018-01-17T07:07:58.176Z,44.00
2018-01-17T07:08:58.191Z,48.00
2018-01-17T07:09:58.208Z,56.00
2018-01-17T07:10:58.216Z,68.00
2018-01-17T07:11:58.222Z,84.00
2018-01-17T07:12:58.236Z,88.00
2018-01-17T07:13:58.247Z,112.00
2018-01-17T07:14:58.261Z,108.00
2018-01-17T07:15:58.302Z,128.00
2018-01-17T07:16:58.284Z,144.00
2018-01-17T07:17:58.297Z,180.00
2018-01-17T07:18:58.307Z,212.00
2018-01-17T07:19:58.322Z,240.00
2018-01-17T07:20:58.349Z,256.00
2018-01-17T07:21:58.348Z,276.00
2018-01-17T07:22:58.354Z,304.00
2018-01-17T07:23:58.370Z,324.00
2018-01-17T07:24:58.381Z,352.00
2018-01-17T07:25:58.397Z,384.00
2018-01-17T07:26:58.403Z,400.00
2018-01-17T07:27:58.417Z,412.00
2018-01-17T07:28:58.465Z,396.00
2018-01-17T07:29:58.442Z,396.00
2018-01-17T07:30:58.451Z,400.00
2018-01-17T07:31:58.466Z,420.00
2018-01-17T07:32:58.474Z,388.00
2018-01-17T07:33:58.487Z,404.00
2018-01-17T07:34:58.499Z,456.00
2018-01-17T07:35:58.513Z,488.00
2018-01-17T07:36:58.521Z,496.00
2018-01-17T07:37:58.538Z,512.00
2018-01-17T07:38:58.547Z,600.00
2018-01-17T07:39:58.559Z,688.00
2018-01-17T07:40:58.570Z,744.00
2018-01-17T07:41:58.582Z,836.00
2018-01-17T07:42:58.599Z,840.00
2018-01-17T07:43:58.609Z,884.00
2018-01-17T07:44:58.618Z,804.00
2018-01-17T07:45:58.636Z,744.00
2018-01-17T07:46:58.644Z,716.00
2018-01-17T07:47:58.661Z,620.00
2018-01-17T07:48:58.665Z,696.00
2018-01-17T07:49:58.680Z,708.00
2018-01-17T07:50:58.690Z,708.00
2018-01-17T07:51:58.702Z,744.00
2018-01-17T07:52:58.714Z,696.00
2018-01-17T07:53:58.726Z,836.00
2018-01-17T07:54:58.739Z,932.00
2018-01-17T07:55:58.750Z,980.00
2018-01-17T07:56:58.765Z,1140.00
2018-01-17T07:57:58.775Z,1384.00
2018-01-17T07:58:58.790Z,1372.00
2018-01-17T07:59:58.799Z,1128.00
2018-01-17T08:00:58.810Z,1044.00
2018-01-17T08:01:58.819Z,1108.00
2018-01-17T08:02:58.834Z,1132.00
2018-01-17T08:03:58.847Z,1136.00
2018-01-17T08:04:58.908Z,1040.00
2018-01-17T08:05:58.869Z,1084.00
2018-01-17T08:06:58.885Z,1168.00
2018-01-17T08:07:58.894Z,1060.00
2018-01-17T08:08:58.907Z,1016.00
2018-01-17T08:09:58.917Z,1148.00
2018-01-17T08:10:58.945Z,1236.00
2018-01-17T08:11:58.945Z,1368.00
2018-01-17T08:12:58.964Z,1368.00
2018-01-17T08:13:58.969Z,1432.00
2018-01-17T08:14:58.981Z,1404.00
2018-01-17T08:15:58.994Z,1288.00
2018-01-17T08:16:59.010Z,1360.00
2018-01-17T08:17:59.021Z,1468.00
2018-01-17T08:18:59.027Z,1660.00
2018-01-17T08:19:59.041Z,1828.00
2018-01-17T08:20:59.050Z,1984.00
2018-01-17T08:21:59.078Z,1992.00
2018-01-17T08:22:59.075Z,1648.00
2018-01-17T08:23:59.092Z,1524.00
2018-01-17T08:24:59.220Z,1808.00
2018-01-17T08:25:59.124Z,1936.00
2018-01-17T08:26:59.139Z,2160.00
2018-01-17T08:27:59.144Z,2636.00
2018-01-17T08:28:59.158Z,2176.00
2018-01-17T08:29:59.164Z,1932.00
2018-01-17T08:30:59.172Z,1940.00
2018-01-17T08:31:59.187Z,1880.00
2018-01-17T08:32:59.200Z,1892.00
2018-01-17T08:33:59.209Z,1808.00
2018-01-17T08:34:59.223Z,2160.00
2018-01-17T08:35:59.237Z,2332.00
2018-01-17T08:36:59.252Z,2112.00
2018-01-17T08:37:59.262Z,2336.00
2018-01-17T08:38:59.275Z,2832.00
2018-01-17T08:39:59.283Z,3240.00
2018-01-17T08:40:59.307Z,3304.00
2018-01-17T08:41:59.310Z,2956.00
2018-01-17T08:42:59.322Z,2620.00
2018-01-17T08:43:59.334Z,2960.00
2018-01-17T08:44:59.350Z,3764.00
2018-01-17T08:45:59.359Z,4312.00
2018-01-17T08:46:59.372Z,4300.00
2018-01-17T08:47:59.381Z,4848.00
2018-01-17T08:48:59.397Z,5756.00
2018-01-17T08:49:59.411Z,4760.00
2018-01-17T08:50:59.419Z,3388.00
2018-01-17T08:51:59.441Z,2612.00
2018-01-17T08:52:59.458Z,2432.00
2018-01-17T08:53:59.463Z,2428.00
2018-01-17T08:54:59.473Z,2844.00
2018-01-17T08:55:59.485Z,3228.00
2018-01-17T08:56:59.498Z,3912.00
2018-01-17T08:57:59.510Z,3964.00
2018-01-17T08:58:59.525Z,4112.00
2018-01-17T08:59:59.541Z,3728.00
2018-01-17T09:00:59.547Z,3492.00
2018-01-17T09:01:59.559Z,3480.00
2018-01-17T09:02:59.573Z,3048.00
2018-01-17T09:03:59.586Z,2832.00
2018-01-17T09:04:59.602Z,3160.00
2018-01-17T09:05:59.610Z,3380.00
2018-01-17T09:06:59.625Z,3512.00
2018-01-17T09:07:59.641Z,3616.00
2018-01-17T09:08:59.647Z,4016.00
2018-01-17T09:09:59.660Z,4560.00
2018-01-17T09:10:59.678Z,4192.00
2018-01-17T09:11:59.697Z,3544.00
2018-01-17T09:12:59.698Z,3044.00
2018-01-17T09:13:59.722Z,2860.00
2018-01-17T09:14:59.726Z,2616.00
2018-01-17T09:15:59.736Z,2684.00
2018-01-17T09:16:59.757Z,2864.00
2018-01-17T09:17:59.760Z,2948.00
2018-01-17T09:18:59.774Z,3088.00
2018-01-17T09:19:59.787Z,3504.00
2018-01-17T09:20:59.799Z,4388.00
2018-01-17T09:21:59.810Z,4116.00
2018-01-17T09:22:59.823Z,3624.00
2018-01-17T09:23:59.845Z,3356.00
2018-01-17T09:24:59.849Z,2844.00
2018-01-17T09:25:59.862Z,3376.00
2018-01-17T09:26:59.874Z,4244.00
2018-01-17T09:27:59.886Z,4796.00
2018-01-17T09:28:59.899Z,4516.00
2018-01-17T09:29:59.910Z,4432.00
2018-01-17T09:30:59.928Z,5400.00
2018-01-17T09:31:59.940Z,6852.00
2018-01-17T09:32:59.949Z,5816.00
2018-01-17T09:33:59.965Z,5108.00
2018-01-17T09:34:59.973Z,6092.00
2018-01-17T09:35:59.987Z,6248.00
2018-01-17T09:37:00.005Z,5712.00
2018-01-17T09:38:00.014Z,5160.00
2018-01-17T09:39:00.029Z,5684.00
2018-01-17T09:40:00.048Z,5520.00
2018-01-17T09:41:00.058Z,5220.00
2018-01-17T09:42:00.064Z,5448.00
2018-01-17T09:43:00.077Z,6288.00
2018-01-17T09:44:00.093Z,7404.00
2018-01-17T09:45:00.104Z,8224.00
2018-01-17T09:46:00.120Z,9280.00
2018-01-17T09:47:00.128Z,10088.00
2018-01-17T09:48:00.149Z,10668.00
2018-01-17T09:49:00.153Z,11548.00
2018-01-17T09:50:00.168Z,12000.00
2018-01-17T09:51:00.180Z,12180.00
2018-01-17T09:52:00.195Z,10780.00
2018-01-17T09:53:00.207Z,8120.00
2018-01-17T09:54:00.220Z,6004.00
2018-01-17T09:55:00.233Z,3840.00
2018-01-17T09:56:00.247Z,3204.00
2018-01-17T09:57:00.256Z,3164.00
2018-01-17T09:58:00.271Z,3300.00
2018-01-17T09:59:00.288Z,2836.00
2018-01-17T10:00:00.303Z,2528.00
2018-01-17T10:01:00.313Z,2640.00
2018-01-17T10:02:00.327Z,2164.00
2018-01-17T10:03:00.339Z,1684.00
2018-01-17T10:04:00.351Z,1492.00
2018-01-17T10:05:00.370Z,1724.00
2018-01-17T10:06:00.377Z,1624.00
2018-01-17T10:07:00.403Z,1688.00
2018-01-17T10:08:00.405Z,1908.00
2018-01-17T10:09:00.415Z,1956.00
2018-01-17T10:10:00.428Z,1884.00
2018-01-17T10:11:00.449Z,1596.00
2018-01-17T10:12:00.457Z,1392.00
2018-01-17T10:13:00.469Z,1140.00
2018-01-17T10:14:00.484Z,1116.00
2018-01-17T10:15:00.491Z,1272.00
2018-01-17T10:16:00.506Z,1700.00
2018-01-17T10:17:00.519Z,2096.00
2018-01-17T10:18:00.534Z,2396.00
2018-01-17T10:19:00.545Z,2688.00
2018-01-17T10:20:00.557Z,3088.00
2018-01-17T10:21:00.571Z,3188.00
2018-01-17T10:22:00.584Z,3460.00
2018-01-17T10:23:00.594Z,3684.00
2018-01-17T10:24:00.609Z,3572.00
2018-01-17T10:25:00.622Z,4056.00
2018-01-17T10:26:00.638Z,4156.00
2018-01-17T10:27:00.670Z,4060.00
2018-01-17T10:28:00.658Z,3656.00
2018-01-17T10:29:00.674Z,3308.00
2018-01-17T10:30:00.689Z,3652.00
2018-01-17T10:31:00.696Z,3732.00
2018-01-17T10:32:00.709Z,3768.00
2018-01-17T10:33:00.722Z,3696.00
2018-01-17T10:34:00.738Z,3828.00
2018-01-17T10:35:00.748Z,3120.00
2018-01-17T10:36:00.759Z,2520.00
2018-01-17T10:37:00.777Z,2584.00
2018-01-17T10:38:00.790Z,2612.00
2018-01-17T10:39:00.796Z,2432.00
2018-01-17T10:40:00.814Z,2492.00
2018-01-17T10:41:00.874Z,2508.00
2018-01-17T10:42:00.837Z,1992.00
2018-01-17T10:43:00.858Z,1960.00
2018-01-17T10:44:00.894Z,2232.00
2018-01-17T10:45:00.872Z,1928.00
2018-01-17T10:46:00.884Z,2048.00
2018-01-17T10:47:00.899Z,1956.00
2018-01-17T10:48:00.911Z,2660.00
2018-01-17T10:49:00.922Z,3696.00
2018-01-17T10:50:00.937Z,5204.00
2018-01-17T10:51:00.947Z,6772.00
2018-01-17T10:52:00.963Z,7280.00
2018-01-17T10:53:00.979Z,8952.00
2018-01-17T10:54:00.987Z,7488.00
2018-01-17T10:55:00.997Z,7288.00
2018-01-17T10:56:01.014Z,8904.00
2018-01-17T10:57:01.023Z,10756.00
2018-01-17T10:58:01.036Z,9076.00
2018-01-17T10:59:01.050Z,9880.00
2018-01-17T11:00:01.059Z,10300.00
2018-01-17T11:01:01.080Z,9648.00
2018-01-17T11:02:01.087Z,9344.00
2018-01-17T11:03:01.099Z,10168.00
2018-01-17T11:04:01.114Z,9168.00
2018-01-17T11:05:01.127Z,8072.00
2018-01-17T11:06:01.143Z,8212.00
2018-01-17T11:07:01.153Z,7920.00
2018-01-17T11:08:01.168Z,7504.00
2018-01-17T11:09:01.178Z,6712.00
2018-01-17T11:10:01.208Z,7356.00
2018-01-17T11:11:01.207Z,8284.00
2018-01-17T11:12:01.219Z,9664.00
2018-01-17T11:13:01.232Z,10276.00
2018-01-17T11:14:01.246Z,9976.00
2018-01-17T11:15:01.258Z,10072.00
2018-01-17T11:16:01.276Z,10728.00
2018-01-17T11:17:01.286Z,10480.00
2018-01-17T11:18:01.298Z,9528.00
2018-01-17T11:19:01.315Z,9208.00
2018-01-17T11:20:01.329Z,8404.00
2018-01-17T11:21:01.338Z,8916.00
2018-01-17T11:22:01.351Z,8596.00
2018-01-17T11:23:01.364Z,7576.00
2018-01-17T11:24:01.378Z,5952.00
2018-01-17T11:25:01.399Z,5600.00
2018-01-17T11:26:01.412Z,6576.00
2018-01-17T11:27:01.424Z,7948.00
2018-01-17T11:28:01.432Z,6880.00
2018-01-17T11:29:01.447Z,5108.00
2018-01-17T11:30:01.461Z,4396.00
2018-01-17T11:31:01.478Z,4080.00
2018-01-17T11:32:01.487Z,4712.00
2018-01-17T11:33:01.499Z,4652.00
2018-01-17T11:34:01.515Z,5344.00
2018-01-17T11:35:01.529Z,4800.00
2018-01-17T11:36:01.544Z,5860.00
2018-01-17T11:37:01.551Z,6712.00
2018-01-17T11:38:01.569Z,8056.00
2018-01-17T11:39:01.580Z,6636.00
2018-01-17T11:40:01.595Z,7216.00
2018-01-17T11:41:01.608Z,9412.00
2018-01-17T11:42:01.619Z,10264.00
2018-01-17T11:43:01.630Z,10028.00
2018-01-17T11:44:01.646Z,10804.00
2018-01-17T11:45:01.663Z,10032.00
2018-01-17T11:46:01.681Z,8240.00
2018-01-17T11:47:01.688Z,8496.00
2018-01-17T11:48:01.703Z,7804.00
2018-01-17T11:49:01.712Z,7572.00
2018-01-17T11:50:01.727Z,7364.00
2018-01-17T11:51:01.744Z,7880.00
2018-01-17T11:52:01.754Z,7660.00
2018-01-17T11:53:01.773Z,7188.00
2018-01-17T11:54:01.780Z,7408.00
2018-01-17T11:55:01.799Z,8728.00
2018-01-17T11:56:01.814Z,8824.00
2018-01-17T11:57:01.826Z,8272.00
2018-01-17T11:58:01.841Z,8560.00
2018-01-17T11:59:01.846Z,7932.00
2018-01-17T12:00:01.860Z,8192.00
2018-01-17T12:01:01.891Z,8052.00
2018-01-17T12:02:01.885Z,8420.00
2018-01-17T12:03:01.902Z,7000.00
2018-01-17T12:04:01.914Z,7888.00
2018-01-17T12:05:01.930Z,8488.00
2018-01-17T12:06:01.941Z,9636.00
2018-01-17T12:07:01.962Z,11044.00
2018-01-17T12:08:01.968Z,10520.00
2018-01-17T12:09:01.984Z,9064.00
2018-01-17T12:10:01.995Z,8900.00
2018-01-17T12:11:02.007Z,9112.00
2018-01-17T12:12:02.023Z,9260.00
2018-01-17T12:13:02.039Z,9640.00
2018-01-17T12:14:02.051Z,8348.00
2018-01-17T12:15:02.066Z,8236.00
2018-01-17T12:16:02.076Z,8400.00
2018-01-17T12:17:02.093Z,9244.00
2018-01-17T12:18:02.105Z,8716.00
2018-01-17T12:19:02.118Z,8156.00
2018-01-17T12:20:02.135Z,8324.00
2018-01-17T12:21:02.155Z,7524.00
2018-01-17T12:22:02.160Z,7204.00
2018-01-17T12:23:02.176Z,7168.00
2018-01-17T12:24:02.189Z,7524.00
2018-01-17T12:25:02.201Z,7416.00
2018-01-17T12:26:02.218Z,7816.00
2018-01-17T12:27:02.226Z,7872.00
2018-01-17T12:28:02.264Z,7996.00
2018-01-17T12:29:02.256Z,6784.00
2018-01-17T12:30:02.271Z,5972.00
2018-01-17T12:31:02.284Z,6164.00
2018-01-17T12:32:02.302Z,6464.00
2018-01-17T12:33:02.311Z,5864.00
2018-01-17T12:34:02.322Z,5352.00
2018-01-17T12:35:02.340Z,5620.00
2018-01-17T12:36:02.376Z,5264.00
2018-01-17T12:37:02.360Z,5200.00
2018-01-17T12:38:02.377Z,5208.00
2018-01-17T12:39:02.392Z,5460.00
2018-01-17T12:40:02.408Z,6296.00
2018-01-17T12:41:02.426Z,7016.00
2018-01-17T12:42:02.428Z,7564.00
2018-01-17T12:43:02.442Z,7448.00
2018-01-17T12:44:02.456Z,7056.00
2018-01-17T12:45:02.479Z,6492.00
2018-01-17T12:46:02.482Z,6396.00